Time;durP1;ratioP1;P1;durP2;ratioP2;P2;SDS_P1;SDS_P2;PMS_P1;PMS_P2;Temp;Humidity;BMP_temperature;BMP_pressure;BME280_temperature;BME280_humidity;BME280_pressure;Samples;Min_cycle;Max_cycle;Signal;HPM_P1;HPM_P2
2021/10/21 00:00:01;;;;;;;26.90;9.08;;;;;;;8.06;100.00;101637.43;1715323;83;21063;-82
2021/10/21 00:02:28;;;;;;;24.63;8.25;;;;;;;8.03;100.00;101647.75;1715237;83;21030;-82
2021/10/21 00:04:53;;;;;;;23.55;8.28;;;;;;;8.00;100.00;101645.50;1715193;83;21523;-81
2021/10/21 00:07:19;;;;;;;19.23;7.60;;;;;;;7.99;100.00;101646.03;1710604;83;21073;-81
2021/10/21 00:09:45;;;;;;;22.20;8.58;;;;;;;7.96;100.00;101645.94;1714952;83;20848;-81
2021/10/21 00:12:11;;;;;;;20.65;8.68;;;;;;;7.96;100.00;101641.09;1714872;83;21021;-80
2021/10/21 00:14:37;;;;;;;22.02;8.80;;;;;;;7.95;100.00;101626.86;1715187;83;20999;-80
2021/10/21 00:17:03;;;;;;;22.30;8.90;;;;;;;7.94;100.00;101624.38;1715336;82;21763;-80
2021/10/21 00:19:29;;;;;;;24.77;9.08;;;;;;;7.92;100.00;101617.89;1686590;83;21275;-87
2021/10/21 00:21:55;;;;;;;29.85;9.28;;;;;;;7.92;100.00;101612.53;1715223;83;20971;-82
2021/10/21 00:24:21;;;;;;;26.15;8.88;;;;;;;7.94;100.00;101610.46;1715200;83;22396;-79
2021/10/21 00:26:47;;;;;;;24.87;10.05;;;;;;;7.95;100.00;101605.39;1715283;83;21075;-81
2021/10/21 00:29:13;;;;;;;29.75;10.23;;;;;;;7.99;100.00;101609.80;1715767;83;21055;-80
2021/10/21 00:31:39;;;;;;;24.72;9.00;;;;;;;7.99;100.00;101597.72;1715630;83;21119;-78
2021/10/21 00:34:05;;;;;;;22.40;9.18;;;;;;;7.99;100.00;101599.05;1686952;83;21484;-81
2021/10/21 00:36:31;;;;;;;22.32;8.60;;;;;;;7.98;100.00;101593.92;1715216;83;20983;-81
2021/10/21 00:38:58;;;;;;;21.97;7.90;;;;;;;7.96;100.00;101586.07;1715030;83;21105;-81
2021/10/21 00:41:24;;;;;;;24.27;7.83;;;;;;;7.95;100.00;101587.13;1715235;83;21062;-81
2021/10/21 00:43:51;;;;;;;22.62;7.80;;;;;;;7.93;100.00;101577.11;1715334;83;21899;-80
2021/10/21 00:46:17;;;;;;;21.75;8.33;;;;;;;7.91;100.00;101576.01;1686580;83;21511;-81
2021/10/21 00:48:43;;;;;;;24.30;8.85;;;;;;;7.90;100.00;101574.34;1715352;83;20967;-80
2021/10/21 00:51:14;;;;;;;20.17;8.30;;;;;;;7.85;100.00;101571.52;1715168;83;21026;-84
2021/10/21 00:53:42;;;;;;;21.85;8.93;;;;;;;7.88;100.00;101575.10;1715128;82;21034;-79
2021/10/21 00:56:13;;;;;;;24.72;8.60;;;;;;;7.86;100.00;101573.14;1715271;83;21171;-81
2021/10/21 00:58:39;;;;;;;19.85;8.70;;;;;;;7.87;100.00;101569.94;1715084;82;22207;-81
2021/10/21 01:01:05;;;;;;;28.98;9.93;;;;;;;7.85;100.00;101559.44;1715405;83;21019;-82
2021/10/21 01:03:31;;;;;;;23.87;9.83;;;;;;;7.86;100.00;101564.28;1715202;83;20967;-82
2021/10/21 01:05:57;;;;;;;24.57;9.28;;;;;;;7.86;100.00;101561.59;1715150;83;21054;-82
2021/10/21 01:08:24;;;;;;;26.82;10.05;;;;;;;7.87;100.00;101560.55;1710652;83;21723;-82
2021/10/21 01:10:50;;;;;;;23.77;9.90;;;;;;;7.85;100.00;101558.09;1715297;82;21488;-78
2021/10/21 01:13:16;;;;;;;26.87;10.63;;;;;;;7.87;100.00;101556.52;1715260;83;21066;-81
2021/10/21 01:15:42;;;;;;;29.87;11.03;;;;;;;7.86;100.00;101551.67;1715329;83;20966;-81
2021/10/21 01:18:08;;;;;;;29.55;10.95;;;;;;;7.87;100.00;101553.84;1715103;83;20995;-81
2021/10/21 01:20:34;;;;;;;23.42;10.53;;;;;;;7.88;100.00;101554.12;1715182;83;21049;-82
2021/10/21 01:23:00;;;;;;;25.48;10.90;;;;;;;7.91;100.00;101561.74;1708551;82;20904;-79
2021/10/21 01:25:26;;;;;;;27.75;9.93;;;;;;;7.92;100.00;101548.64;1707607;84;20963;-81
2021/10/21 01:27:53;;;;;;;28.45;10.50;;;;;;;7.93;100.00;101544.38;1707608;83;20932;-80
2021/10/21 01:30:27;;;;;;;25.70;10.00;;;;;;;7.93;100.00;101544.38;1707556;84;21051;-82
2021/10/21 01:32:56;;;;;;;24.70;10.48;;;;;;;7.94;100.00;101547.88;1707460;84;21142;-81
2021/10/21 01:35:22;;;;;;;26.48;10.23;;;;;;;7.95;100.00;101550.89;1707269;84;21019;-82
2021/10/21 01:37:49;;;;;;;30.60;10.70;;;;;;;7.95;100.00;101553.58;1707598;84;21539;-82
2021/10/21 01:40:17;;;;;;;29.55;10.48;;;;;;;7.96;100.00;101537.77;1707616;84;21070;-82
2021/10/21 01:42:44;;;;;;;31.42;11.33;;;;;;;7.98;100.00;101539.71;1707657;83;21027;-80
2021/10/21 01:45:22;;;;;;;27.75;11.33;;;;;;;7.99;100.00;101533.30;1707538;84;21972;-78
2021/10/21 01:47:49;;;;;;;31.75;12.15;;;;;;;8.01;100.00;101534.43;1707472;84;21034;-86
2021/10/21 01:50:18;;;;;;;28.95;11.78;;;;;;;8.02;100.00;101528.83;1707636;84;21039;-81
2021/10/21 01:52:44;;;;;;;33.75;12.93;;;;;;;8.06;100.00;101522.49;1707470;84;21031;-81
2021/10/21 01:55:11;;;;;;;35.38;13.35;;;;;;;8.10;100.00;101527.74;1707583;84;21043;-82
2021/10/21 01:57:39;;;;;;;32.73;12.13;;;;;;;8.12;100.00;101525.14;1707531;84;21170;-81
2021/10/21 02:00:09;;;;;;;31.87;12.80;;;;;;;8.13;100.00;101529.45;1707286;84;21028;-81
2021/10/21 02:02:35;;;;;;;35.00;13.98;;;;;;;8.13;100.00;101518.72;1707445;84;21051;-80
2021/10/21 02:05:02;;;;;;;29.92;13.60;;;;;;;8.13;100.00;101516.03;1707317;84;21026;-79
2021/10/21 02:07:27;;;;;;;33.55;13.30;;;;;;;8.16;100.00;101516.13;1707574;84;21544;-81
2021/10/21 02:09:53;;;;;;;36.35;14.00;;;;;;;8.19;100.00;101518.36;1707533;83;21069;-81
2021/10/21 02:12:19;;;;;;;40.03;13.50;;;;;;;8.22;100.00;101523.29;1707500;84;20952;-82
2021/10/21 02:14:45;;;;;;;37.38;14.03;;;;;;;8.25;100.00;101526.05;1707329;84;21563;-81
2021/10/21 02:17:11;;;;;;;39.15;14.68;;;;;;;8.28;100.00;101528.30;1707453;84;21047;-81
2021/10/21 02:19:37;;;;;;;37.53;13.25;;;;;;;8.31;100.00;101531.88;1707357;84;21011;-81
2021/10/21 02:22:05;;;;;;;34.33;13.90;;;;;;;8.32;100.00;101536.20;1686966;83;21669;-80
2021/10/21 02:24:32;;;;;;;35.95;13.88;;;;;;;8.37;100.00;101535.02;1715332;83;21011;-82
2021/10/21 02:26:58;;;;;;;34.75;14.15;;;;;;;8.42;100.00;101531.19;1710579;82;21527;-82
2021/10/21 02:29:24;;;;;;;36.55;14.85;;;;;;;8.44;100.00;101527.73;1715334;83;21051;-81
2021/10/21 02:31:50;;;;;;;43.70;16.45;;;;;;;8.46;100.00;101523.50;1715337;83;20979;-80
2021/10/21 02:34:16;;;;;;;36.93;15.25;;;;;;;8.47;100.00;101533.19;1715378;83;21042;-81
2021/10/21 02:36:42;;;;;;;37.93;15.38;;;;;;;8.47;100.00;101535.88;1715279;83;20899;-80
2021/10/21 02:39:08;;;;;;;38.20;15.43;;;;;;;8.49;100.00;101531.92;1715298;83;21519;-81
2021/10/21 02:41:34;;;;;;;37.80;15.85;;;;;;;8.52;100.00;101532.83;1715088;83;21018;-78
2021/10/21 02:44:00;;;;;;;43.65;16.17;;;;;;;8.51;100.00;101537.91;1715393;83;20983;-79
2021/10/21 02:46:26;;;;;;;44.40;16.70;;;;;;;8.50;100.00;101534.94;1715449;83;20907;-81
2021/10/21 02:48:52;;;;;;;40.12;14.60;;;;;;;8.48;100.00;101530.30;1715303;83;21042;-80
2021/10/21 02:51:18;;;;;;;39.73;16.10;;;;;;;8.46;100.00;101527.00;1715461;83;20951;-81
2021/10/21 02:53:44;;;;;;;38.88;15.85;;;;;;;8.47;100.00;101524.63;1715349;83;20937;-81
2021/10/21 02:56:10;;;;;;;41.50;16.65;;;;;;;8.47;100.00;101524.63;1715088;83;21425;-79
2021/10/21 02:58:35;;;;;;;44.40;16.37;;;;;;;8.47;100.00;101515.23;1715304;83;21415;-80
2021/10/21 03:01:01;;;;;;;45.83;16.25;;;;;;;8.48;100.00;101514.70;1715308;83;21143;-81
2021/10/21 03:03:27;;;;;;;48.73;17.90;;;;;;;8.48;100.00;101515.52;1715404;83;20888;-80
2021/10/21 03:05:53;;;;;;;48.28;18.02;;;;;;;8.52;100.00;101508.64;1715431;83;20904;-81
2021/10/21 03:08:19;;;;;;;51.50;19.27;;;;;;;8.54;100.00;101505.75;1715348;83;20959;-81
2021/10/21 03:10:44;;;;;;;49.48;18.10;;;;;;;8.53;100.00;101503.59;1715196;83;21080;-81
2021/10/21 03:13:10;;;;;;;40.00;17.10;;;;;;;8.56;100.00;101496.42;1715096;82;21661;-82
2021/10/21 03:15:36;;;;;;;47.83;17.23;;;;;;;8.55;100.00;101493.42;1715248;83;20967;-79
2021/10/21 03:18:02;;;;;;;48.17;17.75;;;;;;;8.57;100.00;101495.91;1715410;83;20884;-82
2021/10/21 03:20:28;;;;;;;54.30;17.87;;;;;;;8.58;100.00;101495.66;1715169;83;21023;-81
2021/10/21 03:22:55;;;;;;;50.38;18.60;;;;;;;8.60;100.00;101498.14;1714872;83;21464;-82
2021/10/21 03:25:20;;;;;;;44.77;17.25;;;;;;;8.61;100.00;101499.77;1715254;83;20896;-81
2021/10/21 03:27:46;;;;;;;49.25;16.93;;;;;;;8.60;100.00;101503.51;1715354;83;20966;-81
2021/10/21 03:30:13;;;;;;;43.83;17.42;;;;;;;8.60;100.00;101504.33;1715267;83;20950;-81
2021/10/21 03:32:39;;;;;;;49.45;17.25;;;;;;;8.59;100.00;101494.64;1686909;83;20999;-85
2021/10/21 03:35:07;;;;;;;45.63;16.17;;;;;;;8.60;100.00;101495.45;1715280;83;21081;-81
2021/10/21 03:37:34;;;;;;;41.68;16.17;;;;;;;8.61;100.00;101494.39;1715366;83;21591;-79
2021/10/21 03:40:00;;;;;;;41.65;16.02;;;;;;;8.62;100.00;101491.50;1715081;83;21015;-79
2021/10/21 03:42:27;;;;;;;42.65;18.05;;;;;;;8.62;100.00;101486.12;1715331;83;20966;-80
2021/10/21 03:44:56;;;;;;;46.65;17.80;;;;;;;8.65;100.00;101484.86;1715019;83;20988;-80
2021/10/21 03:47:21;;;;;;;44.83;17.77;;;;;;;8.66;100.00;101479.77;1686946;83;21490;-78
2021/10/21 03:49:47;;;;;;;46.85;16.77;;;;;;;8.68;100.00;101475.00;1710637;83;20884;-81
2021/10/21 03:52:13;;;;;;;43.92;17.23;;;;;;;8.70;100.00;101468.05;1715396;83;21015;-81
2021/10/21 03:54:39;;;;;;;48.58;17.73;;;;;;;8.74;100.00;101473.28;1715263;83;20966;-85
2021/10/21 03:57:05;;;;;;;52.88;17.20;;;;;;;8.74;100.00;101468.73;1715501;83;20896;-82
2021/10/21 03:59:31;;;;;;;47.85;17.02;;;;;;;8.75;100.00;101465.51;1715315;83;20985;-81
2021/10/21 04:01:57;;;;;;;56.80;17.37;;;;;;;8.75;100.00;101464.98;1714634;83;21558;-81
2021/10/21 04:04:23;;;;;;;46.45;16.57;;;;;;;8.80;100.00;101470.50;1714971;83;21034;-80
2021/10/21 04:06:49;;;;;;;43.05;16.50;;;;;;;8.82;100.00;101474.30;1715383;83;20880;-79
2021/10/21 04:09:15;;;;;;;46.48;17.32;;;;;;;8.82;100.00;101476.98;1715210;83;20966;-82
2021/10/21 04:11:41;;;;;;;44.10;16.85;;;;;;;8.83;100.00;101478.64;1715314;83;21156;-78
2021/10/21 04:14:07;;;;;;;43.73;15.43;;;;;;;8.85;100.00;101480.56;1715787;83;20896;-80
2021/10/21 04:16:33;;;;;;;48.68;17.05;;;;;;;8.86;100.00;101470.94;1686901;83;20887;-82
2021/10/21 04:18:59;;;;;;;40.50;16.00;;;;;;;8.90;100.00;101473.99;1715397;83;20876;-86
2021/10/21 04:21:25;;;;;;;48.28;16.75;;;;;;;8.94;100.00;101476.54;1715306;83;21070;-81
2021/10/21 04:23:51;;;;;;;44.33;16.75;;;;;;;8.97;100.00;101477.43;1709210;83;21152;-80
2021/10/21 04:26:16;;;;;;;39.85;16.85;;;;;;;9.03;100.00;101473.83;1707557;83;21026;-80
2021/10/21 04:28:43;;;;;;;40.52;16.12;;;;;;;9.10;100.00;101465.66;1707691;82;20960;-80
2021/10/21 04:31:09;;;;;;;46.68;15.72;;;;;;;9.14;100.00;101464.14;1707622;84;21019;-86
2021/10/21 04:33:35;;;;;;;44.42;16.05;;;;;;;9.21;100.00;101464.89;1707612;83;21065;-81
2021/10/21 04:36:01;;;;;;;40.15;14.98;;;;;;;9.28;100.00;101468.82;1707924;84;21164;-81
2021/10/21 04:38:27;;;;;;;38.23;14.25;;;;;;;9.33;100.00;101471.12;1707687;83;20900;-81
2021/10/21 04:40:53;;;;;;;40.83;14.10;;;;;;;9.38;100.00;101465.03;1707755;84;21035;-81
2021/10/21 04:43:19;;;;;;;36.48;13.35;;;;;;;9.44;100.00;101461.45;1685965;84;21066;-79
2021/10/21 04:45:45;;;;;;;38.30;14.58;;;;;;;9.51;100.00;101456.77;1707711;84;21494;-80
2021/10/21 04:48:11;;;;;;;38.42;14.43;;;;;;;9.59;100.00;101455.62;1707631;84;21058;-81
2021/10/21 04:50:37;;;;;;;36.25;14.28;;;;;;;9.68;100.00;101454.77;1707793;83;20924;-82
2021/10/21 04:53:04;;;;;;;40.15;13.53;;;;;;;9.77;100.00;101450.14;1707891;83;20860;-84
2021/10/21 04:55:34;;;;;;;38.40;13.35;;;;;;;9.99;100.00;101441.47;1707748;83;20933;-82
2021/10/21 04:57:58;;;;;;;32.13;12.78;;;;;;;10.49;100.00;101444.19;1707634;83;21019;-82
2021/10/21 05:00:23;;;;;;;31.95;12.13;;;;;;;11.01;100.00;101448.17;1707745;84;21874;-82
2021/10/21 05:02:49;;;;;;;26.27;11.05;;;;;;;11.40;100.00;101450.48;1707467;84;20892;-81
2021/10/21 05:05:15;;;;;;;28.57;9.88;;;;;;;11.79;100.00;101447.36;1707626;83;20896;-88
2021/10/21 05:07:41;;;;;;;24.72;10.53;;;;;;;12.27;100.00;101446.44;1707625;84;21125;-81
2021/10/21 05:10:08;;;;;;;26.40;10.63;;;;;;;12.37;100.00;101438.45;1707769;84;20892;-82
2021/10/21 05:12:33;;;;;;;22.13;9.48;;;;;;;12.42;100.00;101436.36;1707870;83;21294;-81
2021/10/21 05:15:00;;;;;;;26.52;9.83;;;;;;;12.39;100.00;101438.22;1707715;84;20895;-87
2021/10/21 05:17:25;;;;;;;21.57;9.73;;;;;;;12.59;100.00;101434.92;1685870;84;21019;-82
2021/10/21 05:19:51;;;;;;;26.15;9.65;;;;;;;12.81;100.00;101426.26;1707452;84;20884;-82
2021/10/21 05:22:17;;;;;;;27.50;9.83;;;;;;;12.89;100.00;101432.58;1740234;82;20901;-87
2021/10/21 05:24:43;;;;;;;23.75;9.65;;;;;;;12.92;100.00;101428.01;1724783;82;22306;-83
2021/10/21 05:27:11;;;;;;;28.23;10.32;;;;;;;13.01;100.00;101422.14;1742871;82;21065;-85
2021/10/21 05:29:37;;;;;;;24.50;9.83;;;;;;;13.17;100.00;101419.30;1742741;81;21056;-82
2021/10/21 05:32:07;;;;;;;23.50;8.83;;;;;;;14.16;100.00;101418.43;1743038;81;21022;-83
2021/10/21 05:34:37;;;;;;;20.25;8.13;;;;;;;14.16;100.00;101418.43;1742846;82;20993;-86
2021/10/21 05:37:04;;;;;;;19.70;8.25;;;;;;;15.11;100.00;101414.13;1688467;84;22336;-84
2021/10/21 05:39:31;;;;;;;16.75;8.35;;;;;;;16.35;100.00;101415.09;1688948;84;21085;-84
2021/10/21 05:41:57;;;;;;;16.73;8.28;;;;;;;17.48;100.00;101415.76;1688804;84;21070;-83
2021/10/21 05:44:25;;;;;;;21.40;8.48;;;;;;;18.52;100.00;101417.11;1688463;84;21039;-82
2021/10/21 05:46:52;;;;;;;17.05;7.90;;;;;;;19.32;100.00;101409.39;1688488;84;21055;-84
2021/10/21 05:49:19;;;;;;;19.35;7.80;;;;;;;20.14;100.00;101402.47;1688403;84;21128;-85
2021/10/21 05:51:46;;;;;;;17.48;7.95;;;;;;;20.83;100.00;101397.73;1688486;84;21109;-84
2021/10/21 05:54:13;;;;;;;16.95;7.60;;;;;;;21.53;92.00;101396.86;1688485;84;21169;-85
2021/10/21 05:56:41;;;;;;;23.40;8.08;;;;;;;22.13;83.77;101398.27;1688277;84;21530;-85
2021/10/21 05:59:08;;;;;;;18.25;6.95;;;;;;;22.70;76.56;101387.82;1688160;84;21546;-85
2021/10/21 06:01:47;;;;;;;20.15;7.92;;;;;;;23.28;69.70;101392.03;1688593;84;21125;-85
2021/10/21 06:04:13;;;;;;;17.23;6.92;;;;;;;23.78;65.15;101394.98;1688458;84;21137;-84
2021/10/21 06:06:39;;;;;;;14.30;7.28;;;;;;;24.04;60.52;101400.95;1688452;84;20939;-87
2021/10/21 06:09:05;;;;;;;16.55;7.20;;;;;;;24.48;58.73;101398.80;1688254;84;21086;-85
2021/10/21 06:11:36;;;;;;;17.60;6.85;;;;;;;24.83;55.28;101401.30;1679938;84;21014;-84
2021/10/21 06:14:02;;;;;;;16.65;6.83;;;;;;;25.22;53.64;101406.09;1687840;84;21054;-86
2021/10/21 06:16:29;;;;;;;12.25;6.83;;;;;;;25.91;51.83;101404.52;1688297;84;21078;-83
2021/10/21 06:18:56;;;;;;;14.15;7.37;;;;;;;26.45;49.14;101407.04;1689753;83;21200;-86
2021/10/21 06:21:24;;;;;;;11.57;6.28;;;;;;;26.91;47.37;101402.09;1690248;83;21199;-87
2021/10/21 06:23:52;;;;;;;10.98;5.78;;;;;;;27.05;44.85;101399.73;1708245;81;21089;-87
2021/10/21 06:26:19;;;;;;;18.20;5.70;;;;;;;27.06;44.20;101391.68;1695560;81;22339;-84
2021/10/21 06:28:51;;;;;;;12.68;7.05;;;;;;;27.07;43.93;101389.71;1729133;81;22127;-83
2021/10/21 06:31:18;;;;;;;15.25;6.30;;;;;;;27.42;43.47;101382.98;1726026;81;21012;-83
2021/10/21 06:33:46;;;;;;;14.40;6.85;;;;;;;27.77;41.92;101382.28;1654810;84;22264;-86
2021/10/21 06:36:12;;;;;;;12.40;6.05;;;;;;;28.10;40.94;101382.50;1628017;88;21077;-84
2021/10/21 06:38:39;;;;;;;15.20;6.42;;;;;;;28.39;40.13;101375.05;1631805;86;21098;-83
2021/10/21 06:41:05;;;;;;;13.35;6.12;;;;;;;28.55;39.21;101374.22;1630185;86;21146;-84
2021/10/21 06:43:32;;;;;;;14.10;6.25;;;;;;;28.43;39.08;101363.48;1603255;88;21942;-85
2021/10/21 06:46:03;;;;;;;9.90;5.70;;;;;;;28.26;38.27;101359.70;1628609;88;21061;-85
2021/10/21 06:48:29;;;;;;;11.57;5.83;;;;;;;28.26;38.60;101357.72;1628621;88;21085;-85
2021/10/21 06:50:54;;;;;;;17.70;6.72;;;;;;;28.30;38.29;101364.76;1628435;88;21040;-84
2021/10/21 06:53:21;;;;;;;12.28;5.62;;;;;;;28.11;37.98;101373.81;1628663;88;21057;-85
2021/10/21 06:55:47;;;;;;;13.22;5.90;;;;;;;27.73;37.68;101372.48;1655633;86;21534;-85
2021/10/21 06:58:13;;;;;;;16.27;6.15;;;;;;;27.38;38.43;101368.22;1662801;86;21187;-86
2021/10/21 07:00:41;;;;;;;14.15;5.92;;;;;;;27.15;39.32;101363.30;1660141;86;21012;-84
2021/10/21 07:03:09;;;;;;;11.70;5.40;;;;;;;27.43;38.76;101359.66;1677353;83;21081;-84
2021/10/21 07:05:39;;;;;;;11.00;5.35;;;;;;;27.32;39.18;101377.36;1696487;83;21048;-79
2021/10/21 07:08:06;;;;;;;12.50;5.97;;;;;;;27.51;38.82;101374.50;1697711;83;21526;-84
2021/10/21 07:10:33;;;;;;;12.05;5.83;;;;;;;27.68;37.61;101376.09;1693035;83;21030;-82
2021/10/21 07:13:02;;;;;;;17.10;6.00;;;;;;;27.83;37.73;101361.49;1688560;83;22231;-84
2021/10/21 07:15:26;;;;;;;14.85;5.83;;;;;;;28.11;37.42;101366.89;1699419;83;21073;-84
2021/10/21 07:17:52;;;;;;;11.90;6.05;;;;;;;28.41;36.77;101360.25;1704231;82;20898;-85
2021/10/21 07:20:18;;;;;;;11.97;5.42;;;;;;;28.87;36.40;101367.36;1698865;83;21134;-83
2021/10/21 07:22:44;;;;;;;12.20;5.42;;;;;;;29.14;35.86;101364.73;1686551;83;21038;-86
2021/10/21 07:25:10;;;;;;;11.48;5.92;;;;;;;29.63;35.28;101359.88;1691458;83;21111;-84
2021/10/21 07:27:36;;;;;;;14.07;6.20;;;;;;;29.99;34.94;101353.49;1701228;84;21081;-82
2021/10/21 07:30:04;;;;;;;11.97;5.60;;;;;;;30.03;34.17;101352.95;1696500;82;21075;-82
2021/10/21 07:32:30;;;;;;;13.48;5.08;;;;;;;29.98;33.91;101350.51;1723042;80;21102;-85
2021/10/21 07:34:56;;;;;;;13.13;5.47;;;;;;;30.04;34.30;101346.23;1731694;80;21007;-84
2021/10/21 07:37:23;;;;;;;14.80;5.50;;;;;;;30.10;34.08;101352.47;1773109;80;21060;-85
2021/10/21 07:39:49;;;;;;;8.28;4.92;;;;;;;30.31;33.50;101355.37;1733788;80;21719;-84
2021/10/21 07:42:15;;;;;;;11.68;5.33;;;;;;;30.45;32.82;101356.16;1743531;81;20947;-86
2021/10/21 07:44:46;;;;;;;10.63;5.60;;;;;;;30.06;33.11;101350.23;1755674;80;21044;-85
2021/10/21 07:47:12;;;;;;;13.25;5.37;;;;;;;29.93;32.75;101348.84;1742936;81;20989;-85
2021/10/21 07:49:38;;;;;;;10.85;5.65;;;;;;;30.03;33.19;101346.00;1742908;81;21529;-86
2021/10/21 07:52:05;;;;;;;9.88;5.03;;;;;;;30.14;32.67;101349.73;1740687;81;21074;-81
2021/10/21 07:54:32;;;;;;;8.25;5.37;;;;;;;29.97;32.02;101341.34;1743283;81;21032;-85
2021/10/21 07:57:04;;;;;;;9.70;4.85;;;;;;;29.55;32.63;101333.12;1743447;82;21036;-85
2021/10/21 07:59:35;;;;;;;13.58;5.37;;;;;;;28.94;33.10;101335.61;1742892;82;21032;-81
2021/10/21 08:02:01;;;;;;;14.83;5.42;;;;;;;28.33;33.81;101339.66;1742971;80;21001;-86
2021/10/21 08:04:32;;;;;;;8.55;4.95;;;;;;;27.84;33.84;101334.00;1726828;80;21191;-82
2021/10/21 08:06:59;;;;;;;11.83;5.17;;;;;;;27.27;34.96;101338.89;1732389;80;21027;-84
2021/10/21 08:09:26;;;;;;;12.40;4.83;;;;;;;27.17;35.44;101326.36;1710109;83;20976;-84
2021/10/21 08:11:53;;;;;;;14.45;5.50;;;;;;;27.50;35.74;101319.72;1710107;83;21003;-83
2021/10/21 08:14:21;;;;;;;17.85;5.15;;;;;;;27.49;35.33;101318.09;1710087;83;21086;-83
2021/10/21 08:16:48;;;;;;;8.88;4.95;;;;;;;27.58;35.33;101311.78;1710196;83;21074;-85
2021/10/21 08:19:14;;;;;;;14.07;4.87;;;;;;;27.22;35.24;101317.59;1710092;82;21043;-82
2021/10/21 08:21:40;;;;;;;11.00;4.65;;;;;;;26.58;35.80;101304.16;1681206;83;21445;-82
2021/10/21 08:24:09;;;;;;;11.35;5.33;;;;;;;26.28;36.92;101300.31;1739025;81;20956;-84
2021/10/21 08:26:37;;;;;;;19.17;4.78;;;;;;;26.26;36.67;101308.94;1742606;82;20996;-85
2021/10/21 08:29:04;;;;;;;11.30;5.10;;;;;;;26.21;36.60;101311.16;1743136;81;21024;-84
2021/10/21 08:31:30;;;;;;;10.68;5.12;;;;;;;26.06;36.46;101311.31;1742893;82;22130;-86
2021/10/21 08:33:56;;;;;;;13.18;4.62;;;;;;;25.14;37.79;101309.26;1742975;81;21056;-86
2021/10/21 08:36:23;;;;;;;12.78;5.33;;;;;;;24.39;38.54;101301.00;1741059;82;21083;-84
2021/10/21 08:38:50;;;;;;;10.72;4.60;;;;;;;23.57;40.30;101309.56;1743320;81;21043;-82
2021/10/21 08:41:18;;;;;;;8.00;4.60;;;;;;;23.24;41.22;101307.19;1743160;81;21074;-83
2021/10/21 08:43:47;;;;;;;14.38;4.65;;;;;;;22.52;41.80;101297.72;1743142;82;20997;-83
2021/10/21 08:46:21;;;;;;;14.63;4.80;;;;;;;22.00;42.67;101301.17;1736408;82;21150;-82
2021/10/21 08:48:57;;;;;;;11.83;4.20;;;;;;;21.58;43.72;101298.55;1664819;85;21074;-86
2021/10/21 08:51:23;;;;;;;11.83;4.10;;;;;;;21.18;44.82;101293.84;1670043;84;21014;-84
2021/10/21 08:53:49;;;;;;;10.00;4.28;;;;;;;20.97;45.53;101284.50;1684311;85;21147;-78
2021/10/21 08:56:26;;;;;;;11.95;3.70;;;;;;;20.71;46.63;101292.00;1664972;85;20903;-82
2021/10/21 08:58:55;;;;;;;9.83;3.85;;;;;;;20.49;47.62;101285.10;1625155;86;21622;-81
2021/10/21 09:01:32;;;;;;;10.38;3.85;;;;;;;20.25;48.53;101282.65;1652318;85;21098;-80
2021/10/21 09:08:54;;;;;;;15.32;3.67;;;;;;;19.94;51.03;101253.20;1646273;85;21080;-81
2021/10/21 09:11:22;;;;;;;13.95;4.42;;;;;;;19.86;51.45;101267.63;1640204;86;21098;-82
2021/10/21 09:13:52;;;;;;;12.23;4.72;;;;;;;19.71;51.65;101268.19;1628620;86;21083;-79
2021/10/21 09:16:19;;;;;;;13.50;4.20;;;;;;;19.52;52.59;101255.94;1638768;86;21074;-82
2021/10/21 09:18:47;;;;;;;13.20;4.05;;;;;;;19.34;54.04;101260.95;1643008;85;21130;-83
2021/10/21 09:21:32;;;;;;;9.40;3.92;;;;;;;19.30;54.26;101259.95;1650828;86;21067;-83
2021/10/21 09:24:29;;;;;;;11.85;4.05;;;;;;;19.22;54.74;101253.81;1645063;85;21191;-83
2021/10/21 09:27:14;;;;;;;19.23;4.10;;;;;;;19.14;55.84;101241.64;1621221;86;21040;-80
2021/10/21 09:29:48;;;;;;;10.82;5.17;;;;;;;19.04;56.65;101237.19;1624502;86;21167;-83
2021/10/21 09:32:19;;;;;;;9.58;4.10;;;;;;;19.01;57.86;101230.16;1658740;86;21284;-82
2021/10/21 09:35:01;;;;;;;14.25;4.40;;;;;;;18.94;57.97;101226.45;1648730;86;21042;-81
2021/10/21 09:40:24;;;;;;;12.50;4.35;;;;;;;18.85;60.81;101225.50;1563094;90;21077;-81
2021/10/21 09:43:00;;;;;;;12.10;4.45;;;;;;;18.89;61.81;101223.00;1558338;89;21106;-81
2021/10/21 09:45:41;;;;;;;9.00;3.98;;;;;;;18.98;61.17;101222.00;1522211;93;21110;-81
2021/10/21 09:48:08;;;;;;;16.15;4.50;;;;;;;19.10;61.51;101217.97;1488824;94;21159;-82
2021/10/21 09:50:39;;;;;;;11.48;4.53;;;;;;;19.25;60.97;101209.48;1490499;94;21116;-81
2021/10/21 09:53:19;;;;;;;9.30;4.60;;;;;;;19.35;60.33;101217.47;1490239;94;21152;-81
2021/10/21 09:55:56;;;;;;;12.40;4.17;;;;;;;19.29;59.00;101207.22;1490298;96;21130;-81
2021/10/21 09:58:33;;;;;;;9.33;3.87;;;;;;;19.24;59.93;101216.87;1490378;96;21185;-81
2021/10/21 10:01:12;;;;;;;13.83;4.22;;;;;;;19.27;60.35;101204.53;1490322;96;21112;-86
2021/10/21 10:03:43;;;;;;;11.53;4.08;;;;;;;19.39;60.92;101202.09;1473571;97;21318;-82
2021/10/21 10:06:18;;;;;;;13.35;4.30;;;;;;;19.47;60.20;101195.09;1462557;98;21108;-85
2021/10/21 10:08:45;;;;;;;11.95;3.67;;;;;;;19.48;59.25;101178.39;1456911;98;21674;-82
2021/10/21 10:11:14;;;;;;;11.05;4.37;;;;;;;19.43;59.49;101179.05;1441768;99;21922;-78
2021/10/21 10:13:53;;;;;;;11.65;3.83;;;;;;;19.39;60.02;101188.99;1441476;99;21139;-78
2021/10/21 10:16:19;;;;;;;11.53;4.30;;;;;;;19.39;61.84;101177.49;1441458;99;21209;-82
2021/10/21 10:18:47;;;;;;;18.23;4.10;;;;;;;19.47;61.85;101183.63;1441528;99;21091;-81
2021/10/21 10:21:31;;;;;;;15.65;3.83;;;;;;;19.59;61.32;101185.00;1441714;99;21073;-82
2021/10/21 10:24:02;;;;;;;10.80;4.37;;;;;;;19.51;60.56;101188.72;1421458;99;21064;-80
2021/10/21 10:26:45;;;;;;;9.95;3.77;;;;;;;19.39;60.62;101178.06;1406749;100;21414;-79
2021/10/21 10:29:40;;;;;;;14.07;4.40;;;;;;;19.29;61.39;101174.95;1360897;103;21196;-82
2021/10/21 10:32:27;;;;;;;14.10;3.87;;;;;;;19.26;63.44;101166.80;1357723;101;21123;-83
2021/10/21 10:34:54;;;;;;;8.93;3.77;;;;;;;19.22;61.92;101166.36;1357154;105;22219;-82
2021/10/21 10:37:26;;;;;;;16.12;4.08;;;;;;;19.21;62.54;101156.00;1420925;97;21132;-83
2021/10/21 10:39:58;;;;;;;11.53;4.20;;;;;;;19.28;61.75;101165.14;1428904;97;21100;-83
2021/10/21 10:42:41;;;;;;;11.48;4.12;;;;;;;19.40;62.01;101158.60;1436896;97;21172;-82
2021/10/21 10:45:12;;;;;;;8.80;3.85;;;;;;;19.45;61.14;101161.23;1425078;99;21140;-83
2021/10/21 10:47:50;;;;;;;15.45;3.87;;;;;;;19.53;60.79;101159.72;1426678;99;21126;-82
2021/10/21 10:50:28;;;;;;;14.85;4.20;;;;;;;19.63;61.14;101157.31;1410399;99;21228;-80
2021/10/21 10:53:06;;;;;;;13.38;3.98;;;;;;;19.69;60.43;101152.02;1430156;98;21068;-83
2021/10/21 10:55:46;;;;;;;17.62;3.72;;;;;;;19.71;58.62;101145.69;1434933;95;21108;-81
2021/10/21 10:58:15;;;;;;;9.28;3.50;;;;;;;19.69;59.13;101143.25;1466127;97;21522;-81
2021/10/21 11:00:48;;;;;;;12.80;3.80;;;;;;;19.70;58.95;101141.31;1490169;94;21088;-84
2021/10/21 11:03:22;;;;;;;8.08;3.40;;;;;;;19.67;59.64;101132.36;1522608;93;21224;-81
2021/10/21 11:05:52;;;;;;;11.05;4.10;;;;;;;19.64;59.67;101127.47;1556852;85;20978;-82
2021/10/21 11:08:18;;;;;;;14.25;4.03;;;;;;;19.56;60.15;101130.93;1679643;84;20996;-84
2021/10/21 11:10:48;;;;;;;10.48;3.77;;;;;;;19.54;60.38;101131.81;1687064;85;20983;-83
2021/10/21 11:13:34;;;;;;;9.90;3.90;;;;;;;19.49;61.55;101130.80;1683884;85;21058;-84
2021/10/21 11:16:02;;;;;;;8.98;3.83;;;;;;;19.51;62.28;101119.00;1687223;85;21152;-91
2021/10/21 11:18:42;;;;;;;12.70;4.33;;;;;;;19.56;62.23;101116.73;1687037;85;20999;-83
2021/10/21 11:21:08;;;;;;;9.70;3.87;;;;;;;19.59;63.18;101109.81;1687067;85;20987;-83
2021/10/21 11:23:38;;;;;;;16.95;3.85;;;;;;;19.65;62.62;101127.21;1687214;85;21563;-83
2021/10/21 11:26:06;;;;;;;16.73;4.37;;;;;;;19.64;62.11;101112.44;1685827;84;20967;-83